Flight Track Log - Related Links

Times and Time Zones

All times are in EDT time to prevent confusion due to time zone crossing. See the N789EX flight status page for this flight to view local times or setup timezone preferences in your user account.

Time Position Orientation Groundspeed Altitude Reporting Facility
EDT Latitude Longitude Course Direction KTS MPH feet Rate Location/Type
Wed 12:32:22 47.4710 -122.2500 148° Southeast 231 266 2,700  Level FlightAware ADS-B
Wed 12:33:00 47.4390 -122.2190 147° Southeast 242 278 3,000 3,000 Climbing FlightAware ADS-B
Wed 12:33:38 47.4800 -122.1640 42° Northeast 253 291 6,500 4,476 Climbing FlightAware ADS-B
Wed 12:34:03 47.5060 -122.1660 357° North 255 293 7,700 3,529 Climbing FlightAware ADS-B
Wed 12:34:46 47.5640 -122.1710 357° North 268 308 10,500 3,517 Climbing FlightAware ADS-B
Wed 12:35:30 47.6190 -122.1740 358° North 278 320 12,800 3,075 Climbing FlightAware ADS-B
Wed 12:36:06 47.6670 -122.1790 356° North 289 333 14,600 1,615 Climbing FlightAware ADS-B
Wed 12:36:48 47.7240 -122.1830 357° North 302 348 14,900 231 Climbing FlightAware ADS-B
Wed 12:37:24 47.7740 -122.1870 357° North 298 343 14,900  Level FlightAware ADS-B
Wed 12:38:00 47.8240 -122.1920 356° North 297 342 14,900  Level FlightAware ADS-B
Wed 12:38:40 47.8790 -122.2010 354° North 299 344 14,900  Level FlightAware ADS-B
Wed 12:39:11 47.9210 -122.2140 348° North 302 348 14,900  Level FlightAware ADS-B
Wed 12:39:45 47.9700 -122.2260 351° North 356 410 14,900  Level FlightAware ADS-B
Wed 12:40:50 48.0760 -122.1700 19° North 376 433 14,900  Level FlightAware ADS-B
Wed 12:41:17 48.1090 -122.1310 38° Northeast 371 427 14,900  Level FlightAware ADS-B
Wed 12:41:36 48.1200 -122.0790 72° East 371 427 14,900  Level FlightAware ADS-B
Wed 12:42:28 48.0650 -121.9910 133° Southeast 375 432 14,900  Level FlightAware ADS-B
Wed 12:43:07 48.0110 -122.0320 207° Southwest 340 391 14,900  Level FlightAware ADS-B
Wed 12:43:23 48.0050 -122.0680 256° West 337 388 14,900  Level FlightAware ADS-B
Wed 12:44:10 48.0540 -122.1530 311° West 379 436 14,900  Level FlightAware ADS-B
Wed 12:44:50 48.1160 -122.2000 333° Northwest 375 432 14,900  Level FlightAware ADS-B
Wed 12:45:25 48.1710 -122.1800 14° North 371 427 14,900  Level FlightAware ADS-B
Wed 12:45:54 48.1910 -122.1140 66° East 374 430 14,900  Level FlightAware ADS-B
Wed 12:46:35 48.1560 -122.0300 122° Southeast 376 433 14,900  Level FlightAware ADS-B
Wed 12:47:13 48.0940 -122.0390 186° South 371 427 14,900  Level FlightAware ADS-B
Wed 12:47:43 48.0690 -122.1070 241° Southwest 378 435 14,900  Level FlightAware ADS-B
Wed 12:48:23 48.1020 -122.1950 299° West 376 433 14,900  Level FlightAware ADS-B
Wed 12:49:04 48.1690 -122.1840 North 374 430 14,900  Level FlightAware ADS-B
Wed 12:49:34 48.1900 -122.1210 63° Northeast 373 429 14,900  Level FlightAware ADS-B
Wed 12:50:22 48.1780 -121.9930 98° East 375 432 14,900  Level FlightAware ADS-B
Wed 12:51:06 48.1640 -121.8820 101° East 375 432 14,900  Level FlightAware ADS-B
Wed 12:51:48 48.1500 -121.7740 101° East 373 429 14,900  Level FlightAware ADS-B
Wed 12:52:26 48.1380 -121.6770 100° East 370 426 14,900  Level FlightAware ADS-B
Wed 12:53:10 48.1240 -121.5680 101° East 372 428 14,900 67 Level FlightAware ADS-B
Wed 12:53:56 48.1100 -121.4500 100° East 374 430 15,000  Climbing FlightAware ADS-B
Wed 12:54:56 48.0910 -121.2920 100° East 418 481 14,900 -60 Descending FlightAware ADS-B
Wed 12:55:36 48.0850 -121.1710 94° East 440 506 14,900  Level FlightAware ADS-B
Wed 12:56:14 48.0790 -121.0570 94° East 444 511 14,900  Level FlightAware ADS-B
Wed 12:56:48 48.0730 -120.9520 95° East 444 511 14,900  Level FlightAware ADS-B
Wed 12:57:29 48.0670 -120.8280 94° East 445 512 14,900 73 Level FlightAware ADS-B
Wed 12:58:10 48.0620 -120.7000 93° East 445 512 15,000  Climbing FlightAware ADS-B
Wed 12:58:40 48.0580 -120.6090 94° East 441 507 14,900 -81 Descending FlightAware ADS-B
Wed 12:59:24 48.0520 -120.4780 94° East 438 504 14,900 -71 Level FlightAware ADS-B
Wed 13:00:04 48.0460 -120.3570 94° East 438 504 14,800 -91 Descending FlightAware ADS-B
Wed 13:00:30 48.0410 -120.2800 96° East 453 521 14,800  Level FlightAware ADS-B
Wed 13:01:08 48.0350 -120.1800 95° East 453 521 14,800  Level FlightAware ADS-B
Wed 13:01:44 48.0290 -120.0840 95° East 453 521 14,800  Level FlightAware ADS-B
Wed 13:02:21 48.0240 -119.9860 94° East 453 521 14,800 49 Level FlightAware ADS-B
Wed 13:03:46 48.0136 -119.7042 94° East 455 524 14,900 41 Climbing Seattle Center
Wed 13:04:46 48.0075 -119.5153 93° East 456 525 14,900  Level Seattle Center
Wed 13:05:47 47.9942 -119.3214 96° East 471 542 14,900 49 Level Seattle Center
Wed 13:06:48 47.9756 -119.0919 97° East 465 535 15,000 49 Climbing Seattle Center
Wed 13:07:49 47.9553 -118.9008 99° East 467 537 15,000  Level Seattle Center
Wed 13:08:50 47.9336 -118.7039 99° East 481 554 15,000 49 Level Seattle Center
Wed 13:09:51 47.9106 -118.5067 100° East 485 558 15,100 49 Climbing Seattle Center
Wed 13:10:52 47.8889 -118.3092 99° East 484 557 15,100 -98 Level Seattle Center
Wed 13:11:53 47.8703 -118.1108 98° East 485 558 14,900 -49 Descending Seattle Center
Wed 13:12:54 47.8528 -117.9103 97° East 488 562 15,000 197 Climbing Seattle Center
Wed 13:13:55 47.8392 -117.7083 96° East 489 563 15,300  Climbing Seattle Center
Wed 13:14:56 47.8211 -117.5097 98° East 484 557 15,000 -98 Descending Seattle Center
Wed 13:15:57 47.8067 -117.2825 95° East 485 558 15,100  Climbing Seattle Center
Wed 13:16:58 47.7939 -117.0861 95° East 477 549 15,000  Descending Seattle Center
Wed 13:17:59 47.7403 -116.9342 118° Southeast 445 512 15,100  Climbing Seattle Center
Wed 13:19:00 47.6325 -116.9847 198° South 441 507 15,000 -49 Descending Seattle Center
Wed 13:20:01 47.6408 -117.1542 274° West 433 498 15,000 -49 Level Seattle Center
Wed 13:21:02 47.6867 -117.3261 292° West 432 497 14,900 -49 Descending Seattle Center
Wed 13:22:03 47.7311 -117.4953 291° West 431 496 14,900  Level Seattle Center
Wed 13:23:03 47.7719 -117.6578 291° West 434 499 14,900  Level Seattle Center
Wed 13:24:04 47.8075 -117.8269 287° West 431 496 14,900  Level Seattle Center
Wed 13:25:05 47.8408 -118.0053 286° West 449 517 14,900 -49 Level Seattle Center
Wed 13:26:06 47.8697 -118.2006 283° West 483 556 14,800  Descending Seattle Center
Wed 13:27:07 47.8978 -118.3978 282° West 488 562 14,900  Climbing Seattle Center
Wed 13:28:08 47.9236 -118.5950 281° West 487 560 14,800 -49 Descending Seattle Center
Wed 13:29:09 47.9469 -118.7964 280° West 494 568 14,800 -49 Level Seattle Center
Wed 13:30:10 47.9672 -119.0017 278° West 502 578 14,700 -99 Descending Seattle Center
Wed 13:31:10 47.9972 -119.2014 283° West 497 572 14,600 149 Descending Seattle Center
Wed 13:32:11 47.9850 -119.4053 265° West 506 582 15,000 197 Climbing Seattle Center
Wed 13:33:12 47.9181 -119.5917 242° Southwest 509 586 15,000 -33 Level Seattle Center
Wed 13:38:14 47.3590 -119.7610 242° Southwest 476 548 14,800 -36 Descending FlightAware ADS-B
Wed 13:38:46 47.3090 -119.7020 141° Southeast 442 509 14,800  Level FlightAware ADS-B
Wed 13:39:30 47.2500 -119.6070 132° Southeast 395 455 14,800  Level FlightAware ADS-B
Wed 13:40:01 47.2140 -119.5480 132° Southeast 376 433 14,800  Level FlightAware ADS-B
Wed 13:40:37 47.1740 -119.4820 132° Southeast 374 430 14,800  Level FlightAware ADS-B
Wed 13:41:28 47.1220 -119.3950 131° Southeast 374 430 14,800  Level FlightAware ADS-B
Wed 13:42:04 47.0880 -119.3360 130° Southeast 374 430 14,800  Level FlightAware ADS-B
Wed 13:42:28 47.0650 -119.2970 131° Southeast 374 430 14,800 2,864 Level FlightAware ADS-B
Wed 13:43:32 47.1050 -119.0780 75° East 395 455 19,000 2,722 Climbing FlightAware ADS-B
Wed 13:44:05 47.1170 -119.0050 76° East 399 459 19,200 2,712 Climbing FlightAware ADS-B
Wed 13:45:16 47.1500 -118.7960 77° East 421 484 23,700 3,278 Climbing FlightAware ADS-B
Wed 13:45:53 47.1660 -118.6910 77° East 433 498 25,100 1,157 Climbing FlightAware ADS-B
Wed 13:46:39 47.1840 -118.5760 77° East 435 501 25,300 2,083 Climbing FlightAware ADS-B
Wed 13:47:05 47.1980 -118.4860 77° East 449 517 27,600 2,867 Climbing FlightAware ADS-B
Wed 13:48:09 47.2130 -118.3920 77° East 456 525 29,600 1,062 Climbing FlightAware ADS-B
Wed 13:48:58 47.2340 -118.2670 76° East 456 525 29,600  Level FlightAware ADS-B
Wed 13:49:35 47.2500 -118.1720 76° East 456 525 29,600  Level FlightAware ADS-B
Wed 13:50:12 47.2660 -118.0770 76° East 456 525 29,600  Level FlightAware ADS-B
Wed 13:50:48 47.2820 -117.9850 76° East 456 525 29,600  Level FlightAware ADS-B
Wed 13:51:37 47.3030 -117.8590 76° East 456 525 29,600  Level FlightAware ADS-B
Wed 13:52:02 47.3140 -117.7950 76° East 456 525 29,600 2,893 Level FlightAware ADS-B
Wed 13:53:29 47.3953 -117.3058 76° East 492 566 35,000 2,189 Climbing Seattle Center
Wed 13:54:30 47.4300 -117.1053 76° East 512 589 35,000  Level Seattle Center
Wed 13:55:30 47.4642 -116.9092 75° East 511 588 35,000  Level Seattle Center
Wed 13:56:31 47.5033 -116.6917 75° East 470 541 35,000  Level Seattle Center
Wed 13:57:32 47.5344 -116.5142 75° East 454 522 35,000 49 Level Seattle Center
Wed 13:58:33 47.5647 -116.3461 75° East 432 497 35,100 49 Climbing Seattle Center
Wed 13:59:34 47.5908 -116.1950 76° East 390 449 35,100  Level Seattle Center
Wed 14:00:34 47.6169 -116.0483 75° East 374 430 35,100  Level Seattle Center
Wed 14:01:35 47.5592 -115.9414 129° Southeast 377 434 35,100  Level Seattle Center
Wed 14:02:36 47.4944 -116.0383 225° Southwest 368 423 35,100  Level Seattle Center
Wed 14:03:37 47.5292 -116.1744 291° West 356 410 35,100  Level Seattle Center
Wed 14:04:38 47.5625 -116.3000 292° West 336 387 35,100 -246 Level Seattle Center
Wed 14:05:39 47.5964 -116.4275 292° West 333 383 34,600 -595 Descending Seattle Center
Wed 14:06:39 47.6364 -116.5758 292° West 376 433 33,900 -298 Descending Seattle Center
Wed 14:07:40 47.6769 -116.7431 290° West 423 487 34,000 49 Climbing Seattle Center
Wed 14:08:41 47.6739 -116.9650 269° West 463 533 34,000  Level Seattle Center
Wed 14:09:42 47.6550 -117.1500 261° West 472 543 34,000  Level Seattle Center
Wed 14:15:29 47.4650 -118.3140 261° West 499 574 34,000  Level FlightAware ADS-B
Wed 14:15:55 47.4500 -118.3980 255° West 500 575 34,000  Level FlightAware ADS-B
Wed 14:16:28 47.4340 -118.5110 258° West 501 577 34,000  Level FlightAware ADS-B
Wed 14:17:07 47.4340 -118.6440 270° West 503 579 34,000  Level FlightAware ADS-B
Wed 14:17:39 47.4360 -118.7550 272° West 504 580 34,000  Level FlightAware ADS-B
Wed 14:18:08 47.4450 -118.8520 278° West 504 580 34,000 -86 Level FlightAware ADS-B
Wed 14:18:49 47.4840 -118.9810 294° West 506 582 33,900 -701 Descending FlightAware ADS-B
Wed 14:19:25 47.5220 -119.0930 297° West 505 581 33,100 -1,421 Descending FlightAware ADS-B
Wed 14:20:05 47.5620 -119.2140 296° West 500 575 32,100 -1,479 Descending FlightAware ADS-B
Wed 14:20:38 47.5960 -119.3150 297° West 509 586 31,300 -1,412 Descending FlightAware ADS-B
Wed 14:21:13 47.6340 -119.4290 296° West 521 600 30,500 -640 Descending FlightAware ADS-B
Wed 14:21:53 47.6770 -119.5570 297° West 534 615 30,500  Level FlightAware ADS-B
Wed 14:22:30 47.7160 -119.6810 295° West 537 618 30,500  Level FlightAware ADS-B
Wed 14:23:06 47.7500 -119.7950 294° West 538 619 30,500 87 Level FlightAware ADS-B
Wed 14:23:39 47.7830 -119.9150 292° West 536 617 30,600  Climbing FlightAware ADS-B
Wed 14:24:48 47.8420 -120.1530 290° West 542 624 30,500 -176 Descending FlightAware ADS-B
Wed 14:25:55 47.8980 -120.3900 289° West 546 628 30,200 -480 Descending FlightAware ADS-B
Wed 14:26:28 47.9240 -120.5100 288° West 550 633 29,700 -808 Descending FlightAware ADS-B
Wed 14:27:39 47.9730 -120.7670 286° West 554 638 28,800 -816 Descending FlightAware ADS-B
Wed 14:28:11 47.9900 -120.8870 282° West 551 634 28,300 794 Descending FlightAware ADS-B
Wed 14:28:47 48.0180 -121.0130 288° West 533 613 29,700 1,875 Climbing FlightAware ADS-B
Wed 14:29:31 48.0580 -121.1640 292° West 534 615 30,800 1,063 Climbing FlightAware ADS-B
Wed 14:30:06 48.0870 -121.2810 290° West 537 618 31,100 -196 Climbing FlightAware ADS-B
Wed 14:31:03 48.1180 -121.4940 282° West 541 623 30,500 440 Descending FlightAware ADS-B
Wed 14:31:55 48.1290 -121.6860 275° West 527 606 31,900 1,267 Climbing FlightAware ADS-B
Wed 14:32:33 48.1520 -121.8150 285° West 532 612 32,400 395 Climbing FlightAware ADS-B
Wed 14:33:11 48.2300 -121.8940 326° Northwest 544 626 32,400 86 Level FlightAware ADS-B
Wed 14:33:43 48.3080 -121.8820 North 542 624 32,500  Climbing FlightAware ADS-B
Wed 14:34:10 48.3480 -121.8100 50° Northeast 528 608 32,400  Descending FlightAware ADS-B
Wed 14:34:39 48.3550 -121.7140 84° East 524 603 32,500  Climbing FlightAware ADS-B
Wed 14:35:19 48.3390 -121.5580 99° East 525 604 32,400 -1,047 Descending FlightAware ADS-B
Wed 14:36:05 48.3030 -121.3990 109° East 538 619 31,000 -2,820 Descending FlightAware ADS-B
Wed 14:36:59 48.2570 -121.2060 110° East 549 632 27,700 -1,563 Descending FlightAware ADS-B
Wed 14:37:41 48.2210 -121.0580 110° East 519 597 28,500 1,941 Climbing FlightAware ADS-B
Wed 14:38:41 48.1720 -120.8670 111° Southeast 508 585 31,000 1,714 Climbing FlightAware ADS-B
Wed 14:39:12 48.1440 -120.7640 112° Southeast 523 602 31,100 -1,065 Climbing FlightAware ADS-B
Wed 14:39:43 48.1160 -120.6560 111° Southeast 541 623 29,900 -1,163 Descending FlightAware ADS-B
Wed 14:40:50 48.0540 -120.4230 112° Southeast 524 603 29,200 194 Descending FlightAware ADS-B
Wed 14:41:16 48.0410 -120.3340 102° East 519 597 30,200 2,344 Climbing FlightAware ADS-B
Wed 14:41:54 48.0360 -120.1970 93° East 512 589 31,700 2,382 Climbing FlightAware ADS-B
Wed 14:42:24 48.0360 -120.0930 90° East 507 583 32,900 1,258 Climbing FlightAware ADS-B
Wed 14:42:56 48.0380 -119.9780 88° East 518 596 33,000 -1,781 Climbing FlightAware ADS-B
Wed 14:43:28 48.0390 -119.8630 89° East 548 631 31,000 -4,065 Descending FlightAware ADS-B
Wed 14:43:58 48.0400 -119.7490 89° East 549 632 28,800 -1,125 Descending FlightAware ADS-B
Wed 14:44:32 48.0300 -119.6240 97° East 530 610 29,800 1,645 Climbing FlightAware ADS-B
Wed 14:45:00 48.0170 -119.5270 101° East 525 604 30,500 1,619 Climbing FlightAware ADS-B
Wed 14:45:35 48.0010 -119.4010 101° East 522 601 31,500 81 Climbing FlightAware ADS-B
Wed 14:46:14 47.9830 -119.2610 101° East 544 626 30,600 -1,683 Descending FlightAware ADS-B
Wed 14:46:57 47.9640 -119.0990 100° East 536 617 29,200 273 Descending FlightAware ADS-B
Wed 14:48:04 47.9420 -118.8820 99° East 515 593 31,100 2,131 Climbing FlightAware ADS-B
Wed 14:48:44 47.9270 -118.7270 98° East 517 595 33,000 1,390 Climbing FlightAware ADS-B
Wed 14:49:26 47.9160 -118.5950 97° East 522 601 33,000  Level FlightAware ADS-B
Wed 14:50:02 47.9070 -118.4860 97° East 522 601 33,000  Level FlightAware ADS-B
Wed 14:50:26 47.9010 -118.4130 97° East 522 601 33,000  Level FlightAware ADS-B
Wed 14:51:15 47.8880 -118.2640 97° East 522 601 33,000  Level FlightAware ADS-B
Wed 14:51:51 47.8790 -118.1550 97° East 522 601 33,000  Level FlightAware ADS-B
Wed 14:52:51 47.8640 -117.9720 97° East 522 601 33,000  Level FlightAware ADS-B
Wed 14:53:51 47.8490 -117.7900 97° East 522 601 33,000  Level FlightAware ADS-B
Wed 14:54:51 47.8340 -117.6080 97° East 522 601 33,000  Level FlightAware ADS-B
Wed 14:55:52 47.8190 -117.4230 97° East 522 601 33,000  Level FlightAware ADS-B
Wed 14:56:28 47.8100 -117.3140 97° East 522 601 33,000  Level FlightAware ADS-B
Wed 14:57:28 47.7950 -117.1320 97° East 522 601 33,000  Level FlightAware ADS-B
Wed 14:57:54 47.7880 -117.0530 97° East 522 601 33,000  Level FlightAware ADS-B
Wed 14:58:30 47.7790 -116.9440 97° East 522 601 33,000  Level FlightAware ADS-B
Wed 14:58:54 47.7730 -116.8710 97° East 522 601 33,000 -238 Level FlightAware ADS-B
Wed 15:03:33 47.9470 -119.0720 278° West 518 596 31,800 -19 Descending FlightAware ADS-B
Wed 15:04:17 47.9590 -119.2250 277° West 520 598 32,900 -2,386 Climbing FlightAware ADS-B
Wed 15:04:56 47.9700 -119.3680 277° West 554 638 28,500 -6,692 Descending FlightAware ADS-B
Wed 15:05:09 47.9740 -119.4180 277° West 561 646 27,100 -1,333 Descending FlightAware ADS-B
Wed 15:05:59 47.9840 -119.6000 275° West 489 563 27,100 -375 Level FlightAware ADS-B
Wed 15:06:29 47.9890 -119.6980 274° West 462 532 26,600 -1,791 Descending FlightAware ADS-B
Wed 15:07:06 47.9950 -119.8140 274° West 462 532 25,100 -1,333 Descending FlightAware ADS-B
Wed 15:07:41 48.0010 -119.9210 275° West 442 509 25,000 -417 Descending FlightAware ADS-B
Wed 15:08:18 48.0430 -120.0090 306° West 435 501 24,600 -842 Descending FlightAware ADS-B
Wed 15:08:38 48.0810 -120.0240 345° North 433 498 24,200 -493 Descending FlightAware ADS-B
Wed 15:09:31 48.1600 -119.9320 38° Northeast 454 522 24,000 -179 Descending FlightAware ADS-B
Wed 15:09:45 48.1640 -119.8940 81° East 457 526 24,000  Level FlightAware ADS-B
Wed 15:10:33 48.1080 -119.7690 124° Southeast 458 527 24,000 -300 Level FlightAware ADS-B
Wed 15:11:05 48.0460 -119.7290 157° South 451 519 23,600 -343 Descending FlightAware ADS-B
Wed 15:11:43 47.9830 -119.6940 160° South 451 519 23,600  Level FlightAware ADS-B
Wed 15:12:46 47.8780 -119.6370 160° South 451 519 23,600  Level FlightAware ADS-B
Wed 15:13:11 47.8360 -119.6150 161° South 451 519 23,600  Level FlightAware ADS-B
Wed 15:13:35 47.7960 -119.5930 160° South 451 519 23,600  Level FlightAware ADS-B
Wed 15:14:47 47.6760 -119.5280 160° South 451 519 23,600  Level FlightAware ADS-B
Wed 15:14:59 47.6560 -119.5170 160° South 451 519 23,600 -12,762 Level FlightAware ADS-B
Wed 15:15:50 47.5419 -119.4758 160° South 363 418 10,200 -8,036 Descending Seattle Center
Wed 15:16:51 47.4675 -119.4392 162° South 283 326 8,600 -1,033 Descending Seattle Center
Wed 15:17:52 47.3983 -119.4044 161° South 265 305 8,100 -1,328 Descending Seattle Center
Wed 15:18:53 47.3344 -119.3778 164° South 226 260 5,900 -2,537 Descending Seattle Center
Wed 15:19:55 47.2811 -119.3536 163° South 206 237 2,900 -1,951 Descending Seattle Center
Wed 15:20:56 47.2350 -119.3311 162° South 180 207 1,900 -836 Descending Seattle Center
Wed 15:21:57 47.1981 -119.3131 162° South 158 182 1,200 -689 Descending Seattle Center
Wed 15:23:00 47.2089 -119.3331 308° West  Level FlightAware Approximate
Wed 15:30:00 47.2000 -119.3167 172° South  Level FlightAware Approximate
Wed 15:31:00 47.2030 -119.3406 172° South  Level Estimated
Wed 15:32:00 47.2000 -119.3167 172° South  Level FlightAware Approximate
Wed 15:33:00 47.2030 -119.3406 172° South  Level Estimated
Wed 15:34:00 47.2000 -119.3167 172° South  Level FlightAware Approximate
Wed 15:35:00 47.2030 -119.3406 172° South  Level Estimated
Wed 15:36:00 47.2000 -119.3167 172° South  Level FlightAware Approximate
Wed 15:37:00 47.2030 -119.3406 172° South  Level Estimated

Login

Don't have an account? Register now (free) for customized features, flight alerts, and more!